New Chicago, Indiana
Current Conditions -  °F | °C
As of 3:15 AM on Thursday 23 Oct 2014 (Local Time) from KGYY Reporting Station
Clear Clear  
Wind Chill: 38°   Ceiling: Unl
Heat Index: 41°   Visibility: 7mi
Dew Point: 39°   Wind: 5mph
Humidity: 92%   Direction: 140°SE
Pressure: 30.25"   Gusts: NA
Location:  41.5196°N, 87.2427°W
Report Text: KGYY 230815Z AUTO 14004KT 7SM CLR 05/04 A3025 RMK AO2 T00500038
Loading
Personal Weather Stations






























Interactive Weather Map
Tropical Storm Tracking
New forecast layout! Learn more

10-Day Weather Forecast

Advertisements
Track Severe Weather on mobile